sensor_id;sensor_type;location;lat;lon;timestamp;P1;durP1;ratioP1;P2;durP2;ratioP2
46318;SDS011;32042;50.916;2.926;2023-02-28T00:00:44;8.10;;;6.60;;
46318;SDS011;32042;50.916;2.926;2023-02-28T00:03:10;6.97;;;5.83;;
46318;SDS011;32042;50.916;2.926;2023-02-28T00:05:36;8.60;;;7.10;;
46318;SDS011;32042;50.916;2.926;2023-02-28T00:08:02;10.30;;;6.97;;
46318;SDS011;32042;50.916;2.926;2023-02-28T00:10:29;9.40;;;6.17;;
46318;SDS011;32042;50.916;2.926;2023-02-28T00:12:56;6.53;;;5.93;;
46318;SDS011;32042;50.916;2.926;2023-02-28T00:15:24;5.77;;;5.27;;
46318;SDS011;32042;50.916;2.926;2023-02-28T00:17:50;6.97;;;5.67;;
46318;SDS011;32042;50.916;2.926;2023-02-28T00:20:16;5.23;;;4.73;;
46318;SDS011;32042;50.916;2.926;2023-02-28T00:22:50;7.30;;;6.63;;
46318;SDS011;32042;50.916;2.926;2023-02-28T00:25:18;6.67;;;5.90;;
46318;SDS011;32042;50.916;2.926;2023-02-28T00:27:44;6.07;;;5.37;;
46318;SDS011;32042;50.916;2.926;2023-02-28T00:30:12;6.97;;;6.33;;
46318;SDS011;32042;50.916;2.926;2023-02-28T00:32:39;10.40;;;7.07;;
46318;SDS011;32042;50.916;2.926;2023-02-28T00:35:05;7.40;;;5.33;;
46318;SDS011;32042;50.916;2.926;2023-02-28T00:37:31;7.27;;;4.93;;
46318;SDS011;32042;50.916;2.926;2023-02-28T00:39:57;5.07;;;4.57;;
46318;SDS011;32042;50.916;2.926;2023-02-28T00:42:23;5.10;;;4.00;;
46318;SDS011;32042;50.916;2.926;2023-02-28T00:44:50;7.77;;;5.17;;
46318;SDS011;32042;50.916;2.926;2023-02-28T00:47:16;7.07;;;4.47;;
46318;SDS011;32042;50.916;2.926;2023-02-28T00:49:42;9.63;;;4.63;;
46318;SDS011;32042;50.916;2.926;2023-02-28T00:52:08;7.57;;;4.60;;
46318;SDS011;32042;50.916;2.926;2023-02-28T00:54:34;5.07;;;4.57;;
46318;SDS011;32042;50.916;2.926;2023-02-28T00:57:01;4.80;;;4.43;;
46318;SDS011;32042;50.916;2.926;2023-02-28T00:59:27;4.30;;;4.00;;
46318;SDS011;32042;50.916;2.926;2023-02-28T01:01:53;5.33;;;4.70;;
46318;SDS011;32042;50.916;2.926;2023-02-28T01:04:19;4.90;;;4.50;;
46318;SDS011;32042;50.916;2.926;2023-02-28T01:06:45;6.17;;;4.37;;
46318;SDS011;32042;50.916;2.926;2023-02-28T01:09:11;6.27;;;4.93;;
46318;SDS011;32042;50.916;2.926;2023-02-28T01:11:37;6.73;;;4.30;;
46318;SDS011;32042;50.916;2.926;2023-02-28T01:14:05;4.83;;;4.17;;
46318;SDS011;32042;50.916;2.926;2023-02-28T01:16:31;6.50;;;3.63;;
46318;SDS011;32042;50.916;2.926;2023-02-28T01:18:57;5.10;;;4.60;;
46318;SDS011;32042;50.916;2.926;2023-02-28T01:21:23;4.87;;;4.00;;
46318;SDS011;32042;50.916;2.926;2023-02-28T01:23:50;5.30;;;3.83;;
46318;SDS011;32042;50.916;2.926;2023-02-28T01:26:17;4.87;;;4.37;;
46318;SDS011;32042;50.916;2.926;2023-02-28T01:28:44;6.63;;;4.20;;
46318;SDS011;32042;50.916;2.926;2023-02-28T01:31:10;4.97;;;4.37;;
46318;SDS011;32042;50.916;2.926;2023-02-28T01:33:37;4.90;;;4.50;;
46318;SDS011;32042;50.916;2.926;2023-02-28T01:36:04;4.70;;;4.20;;
46318;SDS011;32042;50.916;2.926;2023-02-28T01:38:31;4.73;;;4.07;;
46318;SDS011;32042;50.916;2.926;2023-02-28T01:40:57;8.80;;;5.53;;
46318;SDS011;32042;50.916;2.926;2023-02-28T01:43:25;9.20;;;4.17;;
46318;SDS011;32042;50.916;2.926;2023-02-28T01:45:52;7.17;;;4.50;;
46318;SDS011;32042;50.916;2.926;2023-02-28T01:48:19;4.50;;;4.10;;
46318;SDS011;32042;50.916;2.926;2023-02-28T01:50:46;7.87;;;4.70;;
46318;SDS011;32042;50.916;2.926;2023-02-28T01:53:15;6.87;;;4.83;;
46318;SDS011;32042;50.916;2.926;2023-02-28T01:55:42;5.47;;;4.93;;
46318;SDS011;32042;50.916;2.926;2023-02-28T01:58:10;5.17;;;4.67;;
46318;SDS011;32042;50.916;2.926;2023-02-28T02:00:36;5.40;;;4.90;;
46318;SDS011;32042;50.916;2.926;2023-02-28T02:03:08;5.80;;;5.30;;
46318;SDS011;32042;50.916;2.926;2023-02-28T02:05:34;9.33;;;4.80;;
46318;SDS011;32042;50.916;2.926;2023-02-28T02:08:03;6.60;;;5.63;;
46318;SDS011;32042;50.916;2.926;2023-02-28T02:10:39;9.43;;;4.97;;
46318;SDS011;32042;50.916;2.926;2023-02-28T02:17:58;6.87;;;5.13;;
46318;SDS011;32042;50.916;2.926;2023-02-28T02:38:24;7.30;;;5.17;;
46318;SDS011;32042;50.916;2.926;2023-02-28T02:43:40;8.10;;;5.33;;
46318;SDS011;32042;50.916;2.926;2023-02-28T02:46:13;7.07;;;6.27;;
46318;SDS011;32042;50.916;2.926;2023-02-28T02:48:41;7.47;;;6.13;;
46318;SDS011;32042;50.916;2.926;2023-02-28T02:51:16;6.47;;;5.87;;
46318;SDS011;32042;50.916;2.926;2023-02-28T02:53:47;7.00;;;6.30;;
46318;SDS011;32042;50.916;2.926;2023-02-28T02:56:15;7.40;;;6.40;;
46318;SDS011;32042;50.916;2.926;2023-02-28T02:58:42;7.70;;;5.80;;
46318;SDS011;32042;50.916;2.926;2023-02-28T03:01:17;6.37;;;5.73;;
46318;SDS011;32042;50.916;2.926;2023-02-28T03:03:52;6.30;;;5.57;;
46318;SDS011;32042;50.916;2.926;2023-02-28T03:06:19;8.23;;;6.27;;
46318;SDS011;32042;50.916;2.926;2023-02-28T03:08:45;7.37;;;6.67;;
46318;SDS011;32042;50.916;2.926;2023-02-28T03:11:12;6.47;;;5.87;;
46318;SDS011;32042;50.916;2.926;2023-02-28T03:21:43;9.00;;;6.03;;
46318;SDS011;32042;50.916;2.926;2023-02-28T03:24:12;8.60;;;6.00;;
46318;SDS011;32042;50.916;2.926;2023-02-28T03:26:42;9.43;;;6.30;;
46318;SDS011;32042;50.916;2.926;2023-02-28T03:29:18;9.97;;;6.63;;
46318;SDS011;32042;50.916;2.926;2023-02-28T03:31:50;8.00;;;7.00;;
46318;SDS011;32042;50.916;2.926;2023-02-28T03:34:26;7.40;;;6.63;;
46318;SDS011;32042;50.916;2.926;2023-02-28T03:36:59;9.00;;;7.53;;
46318;SDS011;32042;50.916;2.926;2023-02-28T03:42:16;7.37;;;6.67;;
46318;SDS011;32042;50.916;2.926;2023-02-28T03:44:51;11.13;;;6.70;;
46318;SDS011;32042;50.916;2.926;2023-02-28T03:47:21;8.13;;;7.33;;
46318;SDS011;32042;50.916;2.926;2023-02-28T03:49:50;8.67;;;6.87;;
46318;SDS011;32042;50.916;2.926;2023-02-28T03:52:18;7.43;;;6.60;;
46318;SDS011;32042;50.916;2.926;2023-02-28T03:54:47;8.47;;;7.53;;
46318;SDS011;32042;50.916;2.926;2023-02-28T03:59:59;8.30;;;7.50;;
46318;SDS011;32042;50.916;2.926;2023-02-28T04:02:26;9.00;;;7.23;;
46318;SDS011;32042;50.916;2.926;2023-02-28T04:04:53;10.57;;;8.10;;
46318;SDS011;32042;50.916;2.926;2023-02-28T04:07:19;8.57;;;7.70;;
46318;SDS011;32042;50.916;2.926;2023-02-28T04:09:45;8.03;;;7.23;;
46318;SDS011;32042;50.916;2.926;2023-02-28T04:12:11;8.60;;;7.17;;
46318;SDS011;32042;50.916;2.926;2023-02-28T04:14:37;8.80;;;7.93;;
46318;SDS011;32042;50.916;2.926;2023-02-28T04:17:03;8.73;;;7.97;;
46318;SDS011;32042;50.916;2.926;2023-02-28T04:19:29;8.53;;;7.80;;
46318;SDS011;32042;50.916;2.926;2023-02-28T04:21:55;9.63;;;7.23;;
46318;SDS011;32042;50.916;2.926;2023-02-28T04:24:22;10.03;;;8.13;;
46318;SDS011;32042;50.916;2.926;2023-02-28T04:26:51;11.03;;;8.47;;
46318;SDS011;32042;50.916;2.926;2023-02-28T04:29:18;9.77;;;8.47;;
46318;SDS011;32042;50.916;2.926;2023-02-28T04:31:45;8.60;;;7.80;;
46318;SDS011;32042;50.916;2.926;2023-02-28T04:34:11;9.30;;;8.40;;
46318;SDS011;32042;50.916;2.926;2023-02-28T04:36:37;9.03;;;8.13;;
46318;SDS011;32042;50.916;2.926;2023-02-28T04:39:03;9.70;;;8.20;;
46318;SDS011;32042;50.916;2.926;2023-02-28T04:41:29;10.27;;;9.03;;
46318;SDS011;32042;50.916;2.926;2023-02-28T04:43:55;10.03;;;8.17;;
46318;SDS011;32042;50.916;2.926;2023-02-28T04:46:21;9.77;;;8.60;;
46318;SDS011;32042;50.916;2.926;2023-02-28T04:48:47;12.33;;;8.43;;
46318;SDS011;32042;50.916;2.926;2023-02-28T04:51:15;9.30;;;8.43;;
46318;SDS011;32042;50.916;2.926;2023-02-28T04:53:41;9.30;;;8.50;;
46318;SDS011;32042;50.916;2.926;2023-02-28T04:56:08;10.37;;;9.23;;
46318;SDS011;32042;50.916;2.926;2023-02-28T04:58:34;9.37;;;8.20;;
46318;SDS011;32042;50.916;2.926;2023-02-28T05:01:04;9.83;;;7.97;;
46318;SDS011;32042;50.916;2.926;2023-02-28T05:03:38;9.43;;;8.37;;
46318;SDS011;32042;50.916;2.926;2023-02-28T05:06:06;9.67;;;8.77;;
46318;SDS011;32042;50.916;2.926;2023-02-28T05:08:32;13.77;;;7.80;;
46318;SDS011;32042;50.916;2.926;2023-02-28T05:10:58;9.60;;;8.40;;
46318;SDS011;32042;50.916;2.926;2023-02-28T05:13:26;9.13;;;8.23;;
46318;SDS011;32042;50.916;2.926;2023-02-28T05:15:52;8.87;;;7.43;;
46318;SDS011;32042;50.916;2.926;2023-02-28T05:18:18;9.33;;;8.53;;
46318;SDS011;32042;50.916;2.926;2023-02-28T05:20:44;8.47;;;7.77;;
46318;SDS011;32042;50.916;2.926;2023-02-28T05:23:13;11.73;;;8.17;;
46318;SDS011;32042;50.916;2.926;2023-02-28T05:25:40;10.93;;;8.13;;
46318;SDS011;32042;50.916;2.926;2023-02-28T05:28:06;8.60;;;7.67;;
46318;SDS011;32042;50.916;2.926;2023-02-28T05:30:33;7.83;;;7.13;;
46318;SDS011;32042;50.916;2.926;2023-02-28T05:32:59;8.70;;;7.80;;
46318;SDS011;32042;50.916;2.926;2023-02-28T05:35:25;8.63;;;7.83;;
46318;SDS011;32042;50.916;2.926;2023-02-28T05:37:51;8.20;;;7.40;;
46318;SDS011;32042;50.916;2.926;2023-02-28T05:40:18;9.07;;;7.60;;
46318;SDS011;32042;50.916;2.926;2023-02-28T05:42:45;10.40;;;7.67;;
46318;SDS011;32042;50.916;2.926;2023-02-28T05:45:11;9.70;;;8.60;;
46318;SDS011;32042;50.916;2.926;2023-02-28T05:47:37;9.53;;;7.70;;
46318;SDS011;32042;50.916;2.926;2023-02-28T05:50:03;8.77;;;7.97;;
46318;SDS011;32042;50.916;2.926;2023-02-28T05:52:30;15.20;;;10.60;;
46318;SDS011;32042;50.916;2.926;2023-02-28T05:54:56;14.87;;;10.10;;
46318;SDS011;32042;50.916;2.926;2023-02-28T05:57:22;11.63;;;9.70;;
46318;SDS011;32042;50.916;2.926;2023-02-28T05:59:48;12.27;;;9.23;;
46318;SDS011;32042;50.916;2.926;2023-02-28T06:02:15;10.97;;;8.23;;
46318;SDS011;32042;50.916;2.926;2023-02-28T06:04:42;10.93;;;8.50;;
46318;SDS011;32042;50.916;2.926;2023-02-28T06:07:08;10.53;;;8.27;;
46318;SDS011;32042;50.916;2.926;2023-02-28T06:09:34;11.33;;;8.70;;
46318;SDS011;32042;50.916;2.926;2023-02-28T06:12:01;10.97;;;7.70;;
46318;SDS011;32042;50.916;2.926;2023-02-28T06:14:30;9.20;;;7.47;;
46318;SDS011;32042;50.916;2.926;2023-02-28T06:16:56;14.13;;;8.80;;
46318;SDS011;32042;50.916;2.926;2023-02-28T06:19:22;10.30;;;7.83;;
46318;SDS011;32042;50.916;2.926;2023-02-28T06:21:50;11.83;;;8.37;;
46318;SDS011;32042;50.916;2.926;2023-02-28T06:24:17;11.03;;;7.53;;
46318;SDS011;32042;50.916;2.926;2023-02-28T06:26:43;10.37;;;7.83;;
46318;SDS011;32042;50.916;2.926;2023-02-28T06:29:09;14.40;;;8.47;;
46318;SDS011;32042;50.916;2.926;2023-02-28T06:31:35;10.83;;;8.07;;
46318;SDS011;32042;50.916;2.926;2023-02-28T06:34:01;8.73;;;7.93;;
46318;SDS011;32042;50.916;2.926;2023-02-28T06:36:28;10.93;;;8.10;;
46318;SDS011;32042;50.916;2.926;2023-02-28T06:38:54;8.53;;;7.70;;
46318;SDS011;32042;50.916;2.926;2023-02-28T06:41:25;9.23;;;8.23;;
46318;SDS011;32042;50.916;2.926;2023-02-28T06:43:51;8.57;;;7.63;;
46318;SDS011;32042;50.916;2.926;2023-02-28T06:46:18;10.83;;;8.07;;
46318;SDS011;32042;50.916;2.926;2023-02-28T06:48:44;13.97;;;8.40;;
46318;SDS011;32042;50.916;2.926;2023-02-28T06:51:12;8.93;;;7.27;;
46318;SDS011;32042;50.916;2.926;2023-02-28T06:53:39;8.17;;;6.70;;
46318;SDS011;32042;50.916;2.926;2023-02-28T06:56:06;8.27;;;6.70;;
46318;SDS011;32042;50.916;2.926;2023-02-28T06:58:33;8.93;;;6.90;;
46318;SDS011;32042;50.916;2.926;2023-02-28T07:00:59;8.20;;;5.87;;
46318;SDS011;32042;50.916;2.926;2023-02-28T07:03:25;7.07;;;6.43;;
46318;SDS011;32042;50.916;2.926;2023-02-28T07:05:51;13.93;;;9.63;;
46318;SDS011;32042;50.916;2.926;2023-02-28T07:08:17;18.27;;;11.43;;
46318;SDS011;32042;50.916;2.926;2023-02-28T07:10:43;29.53;;;16.47;;
46318;SDS011;32042;50.916;2.926;2023-02-28T07:13:10;14.03;;;11.17;;
46318;SDS011;32042;50.916;2.926;2023-02-28T07:15:37;8.53;;;7.73;;
46318;SDS011;32042;50.916;2.926;2023-02-28T07:18:03;8.07;;;7.27;;
46318;SDS011;32042;50.916;2.926;2023-02-28T07:20:30;7.30;;;6.60;;
46318;SDS011;32042;50.916;2.926;2023-02-28T07:22:56;6.70;;;6.00;;
46318;SDS011;32042;50.916;2.926;2023-02-28T07:25:22;6.97;;;6.13;;
46318;SDS011;32042;50.916;2.926;2023-02-28T07:27:48;5.97;;;5.37;;
46318;SDS011;32042;50.916;2.926;2023-02-28T07:30:14;6.87;;;5.10;;
46318;SDS011;32042;50.916;2.926;2023-02-28T07:32:40;6.63;;;4.70;;
46318;SDS011;32042;50.916;2.926;2023-02-28T07:35:06;5.93;;;5.17;;
46318;SDS011;32042;50.916;2.926;2023-02-28T07:37:33;7.40;;;4.30;;
46318;SDS011;32042;50.916;2.926;2023-02-28T07:40:02;9.87;;;4.93;;
46318;SDS011;32042;50.916;2.926;2023-02-28T07:42:31;5.10;;;4.57;;
46318;SDS011;32042;50.916;2.926;2023-02-28T07:44:57;4.37;;;3.83;;
46318;SDS011;32042;50.916;2.926;2023-02-28T07:47:24;7.03;;;3.57;;
46318;SDS011;32042;50.916;2.926;2023-02-28T07:49:50;11.30;;;3.90;;
46318;SDS011;32042;50.916;2.926;2023-02-28T07:52:16;4.57;;;3.60;;
46318;SDS011;32042;50.916;2.926;2023-02-28T07:54:42;4.57;;;3.40;;
46318;SDS011;32042;50.916;2.926;2023-02-28T07:57:08;5.13;;;3.40;;
46318;SDS011;32042;50.916;2.926;2023-02-28T07:59:34;5.13;;;3.20;;
46318;SDS011;32042;50.916;2.926;2023-02-28T08:02:00;4.57;;;3.73;;
46318;SDS011;32042;50.916;2.926;2023-02-28T08:04:26;4.87;;;3.33;;
46318;SDS011;32042;50.916;2.926;2023-02-28T08:06:53;4.87;;;3.80;;
46318;SDS011;32042;50.916;2.926;2023-02-28T08:09:21;5.23;;;3.73;;
46318;SDS011;32042;50.916;2.926;2023-02-28T08:11:47;6.00;;;3.80;;
46318;SDS011;32042;50.916;2.926;2023-02-28T08:14:13;4.73;;;3.07;;
46318;SDS011;32042;50.916;2.926;2023-02-28T08:16:39;6.50;;;4.23;;
46318;SDS011;32042;50.916;2.926;2023-02-28T08:19:05;3.67;;;3.33;;
46318;SDS011;32042;50.916;2.926;2023-02-28T08:21:31;5.33;;;3.30;;
46318;SDS011;32042;50.916;2.926;2023-02-28T08:23:58;5.37;;;3.27;;
46318;SDS011;32042;50.916;2.926;2023-02-28T08:26:24;4.90;;;3.87;;
46318;SDS011;32042;50.916;2.926;2023-02-28T08:28:50;6.63;;;4.20;;
46318;SDS011;32042;50.916;2.926;2023-02-28T08:31:17;4.17;;;3.47;;
46318;SDS011;32042;50.916;2.926;2023-02-28T08:33:43;6.27;;;3.20;;
46318;SDS011;32042;50.916;2.926;2023-02-28T08:36:10;5.27;;;4.10;;
46318;SDS011;32042;50.916;2.926;2023-02-28T08:38:36;4.87;;;4.33;;
46318;SDS011;32042;50.916;2.926;2023-02-28T08:41:07;4.97;;;4.23;;
46318;SDS011;32042;50.916;2.926;2023-02-28T08:43:34;5.03;;;4.43;;
46318;SDS011;32042;50.916;2.926;2023-02-28T08:46:00;5.93;;;4.33;;
46318;SDS011;32042;50.916;2.926;2023-02-28T08:48:26;4.57;;;4.10;;
46318;SDS011;32042;50.916;2.926;2023-02-28T08:53:22;4.30;;;3.90;;
46318;SDS011;32042;50.916;2.926;2023-02-28T08:55:55;6.20;;;4.47;;
46318;SDS011;32042;50.916;2.926;2023-02-28T08:58:21;4.87;;;4.10;;
46318;SDS011;32042;50.916;2.926;2023-02-28T09:00:47;6.00;;;4.13;;
46318;SDS011;32042;50.916;2.926;2023-02-28T09:03:13;4.83;;;4.10;;
46318;SDS011;32042;50.916;2.926;2023-02-28T09:05:39;4.33;;;3.93;;
46318;SDS011;32042;50.916;2.926;2023-02-28T09:08:05;7.10;;;4.60;;
46318;SDS011;32042;50.916;2.926;2023-02-28T09:10:31;8.40;;;4.63;;
46318;SDS011;32042;50.916;2.926;2023-02-28T09:12:57;11.23;;;4.97;;
46318;SDS011;32042;50.916;2.926;2023-02-28T09:15:23;6.70;;;4.57;;
46318;SDS011;32042;50.916;2.926;2023-02-28T09:17:49;6.43;;;4.30;;
46318;SDS011;32042;50.916;2.926;2023-02-28T09:20:15;4.63;;;3.80;;
46318;SDS011;32042;50.916;2.926;2023-02-28T09:22:41;4.47;;;3.27;;
46318;SDS011;32042;50.916;2.926;2023-02-28T09:25:07;3.43;;;2.93;;
46318;SDS011;32042;50.916;2.926;2023-02-28T09:27:33;3.23;;;2.60;;
46318;SDS011;32042;50.916;2.926;2023-02-28T09:29:59;3.43;;;2.87;;
46318;SDS011;32042;50.916;2.926;2023-02-28T09:32:25;2.80;;;2.60;;
46318;SDS011;32042;50.916;2.926;2023-02-28T09:34:52;2.97;;;2.67;;
46318;SDS011;32042;50.916;2.926;2023-02-28T09:37:18;3.87;;;3.23;;
46318;SDS011;32042;50.916;2.926;2023-02-28T09:39:44;3.60;;;2.80;;
46318;SDS011;32042;50.916;2.926;2023-02-28T09:42:21;3.37;;;2.40;;
46318;SDS011;32042;50.916;2.926;2023-02-28T09:44:47;2.87;;;2.07;;
46318;SDS011;32042;50.916;2.926;2023-02-28T09:50:00;4.13;;;1.60;;
46318;SDS011;32042;50.916;2.926;2023-02-28T09:52:29;2.53;;;1.60;;
46318;SDS011;32042;50.916;2.926;2023-02-28T09:54:55;4.13;;;2.10;;
46318;SDS011;32042;50.916;2.926;2023-02-28T10:05:14;4.23;;;2.80;;
46318;SDS011;32042;50.916;2.926;2023-02-28T10:10:24;2.93;;;2.33;;
46318;SDS011;32042;50.916;2.926;2023-02-28T10:12:52;3.13;;;2.70;;
46318;SDS011;32042;50.916;2.926;2023-02-28T10:15:19;3.50;;;2.17;;
46318;SDS011;32042;50.916;2.926;2023-02-28T10:17:47;2.83;;;2.17;;
46318;SDS011;32042;50.916;2.926;2023-02-28T10:20:16;3.07;;;2.17;;
46318;SDS011;32042;50.916;2.926;2023-02-28T10:22:57;4.33;;;2.33;;
46318;SDS011;32042;50.916;2.926;2023-02-28T10:25:26;2.27;;;2.07;;
46318;SDS011;32042;50.916;2.926;2023-02-28T10:28:01;5.77;;;2.50;;
46318;SDS011;32042;50.916;2.926;2023-02-28T10:30:27;2.47;;;2.10;;
46318;SDS011;32042;50.916;2.926;2023-02-28T10:32:53;2.43;;;2.20;;
46318;SDS011;32042;50.916;2.926;2023-02-28T10:35:21;4.23;;;2.30;;
46318;SDS011;32042;50.916;2.926;2023-02-28T10:37:48;4.20;;;2.63;;
46318;SDS011;32042;50.916;2.926;2023-02-28T10:43:16;3.47;;;1.70;;
46318;SDS011;32042;50.916;2.926;2023-02-28T10:45:34;3.73;;;1.97;;
46318;SDS011;32042;50.916;2.926;2023-02-28T10:48:48;2.00;;;1.80;;
46318;SDS011;32042;50.916;2.926;2023-02-28T10:56:03;2.70;;;1.93;;
46318;SDS011;32042;50.916;2.926;2023-02-28T11:01:20;2.90;;;2.40;;
46318;SDS011;32042;50.916;2.926;2023-02-28T11:03:46;3.50;;;2.30;;
46318;SDS011;32042;50.916;2.926;2023-02-28T11:06:15;2.93;;;2.07;;
46318;SDS011;32042;50.916;2.926;2023-02-28T11:08:49;2.43;;;2.20;;
46318;SDS011;32042;50.916;2.926;2023-02-28T11:11:16;3.00;;;2.17;;
46318;SDS011;32042;50.916;2.926;2023-02-28T11:13:42;2.20;;;2.00;;
46318;SDS011;32042;50.916;2.926;2023-02-28T11:16:10;3.57;;;2.63;;
46318;SDS011;32042;50.916;2.926;2023-02-28T11:18:44;4.30;;;2.60;;
46318;SDS011;32042;50.916;2.926;2023-02-28T11:21:16;4.50;;;2.23;;
46318;SDS011;32042;50.916;2.926;2023-02-28T11:23:43;2.50;;;2.30;;
46318;SDS011;32042;50.916;2.926;2023-02-28T11:26:10;4.37;;;2.50;;
46318;SDS011;32042;50.916;2.926;2023-02-28T11:28:40;3.83;;;2.47;;
46318;SDS011;32042;50.916;2.926;2023-02-28T11:36:13;3.93;;;2.47;;
46318;SDS011;32042;50.916;2.926;2023-02-28T11:38:39;3.33;;;2.93;;
46318;SDS011;32042;50.916;2.926;2023-02-28T11:41:16;3.43;;;2.47;;
46318;SDS011;32042;50.916;2.926;2023-02-28T11:46:40;3.03;;;2.73;;
46318;SDS011;32042;50.916;2.926;2023-02-28T11:54:35;3.07;;;2.70;;
46318;SDS011;32042;50.916;2.926;2023-02-28T11:59:57;3.60;;;2.40;;
46318;SDS011;32042;50.916;2.926;2023-02-28T12:02:28;3.20;;;2.53;;
46318;SDS011;32042;50.916;2.926;2023-02-28T12:05:00;4.37;;;2.40;;
46318;SDS011;32042;50.916;2.926;2023-02-28T12:12:50;5.13;;;2.70;;
46318;SDS011;32042;50.916;2.926;2023-02-28T12:15:38;3.50;;;2.60;;
46318;SDS011;32042;50.916;2.926;2023-02-28T12:26:11;4.67;;;3.00;;
46318;SDS011;32042;50.916;2.926;2023-02-28T12:31:33;3.33;;;2.77;;
46318;SDS011;32042;50.916;2.926;2023-02-28T12:34:03;3.03;;;2.73;;
46318;SDS011;32042;50.916;2.926;2023-02-28T12:36:31;3.33;;;2.63;;
46318;SDS011;32042;50.916;2.926;2023-02-28T12:39:13;2.53;;;2.33;;
46318;SDS011;32042;50.916;2.926;2023-02-28T12:41:42;4.90;;;3.03;;
46318;SDS011;32042;50.916;2.926;2023-02-28T12:44:21;4.33;;;2.87;;
46318;SDS011;32042;50.916;2.926;2023-02-28T12:46:49;3.37;;;2.60;;
46318;SDS011;32042;50.916;2.926;2023-02-28T12:49:17;3.20;;;2.50;;
46318;SDS011;32042;50.916;2.926;2023-02-28T12:51:45;4.23;;;2.53;;
46318;SDS011;32042;50.916;2.926;2023-02-28T12:59:23;2.97;;;2.63;;
46318;SDS011;32042;50.916;2.926;2023-02-28T13:09:37;3.47;;;2.87;;
46318;SDS011;32042;50.916;2.926;2023-02-28T13:12:12;2.57;;;2.30;;
46318;SDS011;32042;50.916;2.926;2023-02-28T13:14:38;8.80;;;2.77;;
46318;SDS011;32042;50.916;2.926;2023-02-28T13:19:37;3.30;;;3.00;;
46318;SDS011;32042;50.916;2.926;2023-02-28T13:22:04;3.57;;;2.60;;
46318;SDS011;32042;50.916;2.926;2023-02-28T13:45:22;2.97;;;2.47;;
46318;SDS011;32042;50.916;2.926;2023-02-28T13:47:58;3.93;;;2.10;;
46318;SDS011;32042;50.916;2.926;2023-02-28T13:55:24;3.20;;;2.07;;
46318;SDS011;32042;50.916;2.926;2023-02-28T14:07:42;2.97;;;2.43;;
46318;SDS011;32042;50.916;2.926;2023-02-28T14:10:18;2.47;;;1.83;;
46318;SDS011;32042;50.916;2.926;2023-02-28T14:13:00;6.07;;;2.10;;
46318;SDS011;32042;50.916;2.926;2023-02-28T14:18:02;2.47;;;2.23;;
46318;SDS011;32042;50.916;2.926;2023-02-28T14:20:31;3.50;;;2.13;;
46318;SDS011;32042;50.916;2.926;2023-02-28T14:23:08;4.23;;;1.90;;
46318;SDS011;32042;50.916;2.926;2023-02-28T14:33:23;8.03;;;2.23;;
46318;SDS011;32042;50.916;2.926;2023-02-28T14:36:03;4.28;;;2.10;;
46318;SDS011;32042;50.916;2.926;2023-02-28T14:38:37;4.50;;;1.90;;
46318;SDS011;32042;50.916;2.926;2023-02-28T14:43:52;3.33;;;1.50;;
46318;SDS011;32042;50.916;2.926;2023-02-28T14:46:19;2.30;;;1.53;;
46318;SDS011;32042;50.916;2.926;2023-02-28T14:48:46;2.87;;;1.50;;
46318;SDS011;32042;50.916;2.926;2023-02-28T14:51:13;2.87;;;1.37;;
46318;SDS011;32042;50.916;2.926;2023-02-28T14:53:44;2.53;;;1.50;;
46318;SDS011;32042;50.916;2.926;2023-02-28T14:56:25;1.37;;;1.00;;
46318;SDS011;32042;50.916;2.926;2023-02-28T14:58:56;1.83;;;1.40;;
46318;SDS011;32042;50.916;2.926;2023-02-28T15:01:23;1.60;;;1.40;;
46318;SDS011;32042;50.916;2.926;2023-02-28T15:03:57;2.00;;;1.50;;
46318;SDS011;32042;50.916;2.926;2023-02-28T15:06:23;1.60;;;1.40;;
46318;SDS011;32042;50.916;2.926;2023-02-28T15:09:06;3.30;;;1.70;;
46318;SDS011;32042;50.916;2.926;2023-02-28T15:11:33;2.07;;;1.60;;
46318;SDS011;32042;50.916;2.926;2023-02-28T15:13:59;2.20;;;1.73;;
46318;SDS011;32042;50.916;2.926;2023-02-28T15:16:29;2.10;;;1.90;;
46318;SDS011;32042;50.916;2.926;2023-02-28T15:18:58;2.73;;;1.70;;
46318;SDS011;32042;50.916;2.926;2023-02-28T15:21:25;2.70;;;1.80;;
46318;SDS011;32042;50.916;2.926;2023-02-28T15:26:39;2.17;;;1.60;;
46318;SDS011;32042;50.916;2.926;2023-02-28T15:29:16;1.73;;;1.60;;
46318;SDS011;32042;50.916;2.926;2023-02-28T15:31:43;2.63;;;1.60;;
46318;SDS011;32042;50.916;2.926;2023-02-28T15:34:18;1.87;;;1.77;;
46318;SDS011;32042;50.916;2.926;2023-02-28T15:36:45;3.33;;;1.70;;
46318;SDS011;32042;50.916;2.926;2023-02-28T15:39:22;4.60;;;2.10;;
46318;SDS011;32042;50.916;2.926;2023-02-28T15:41:49;1.87;;;1.73;;
46318;SDS011;32042;50.916;2.926;2023-02-28T15:44:26;2.97;;;1.80;;
46318;SDS011;32042;50.916;2.926;2023-02-28T15:47:04;2.07;;;1.57;;
46318;SDS011;32042;50.916;2.926;2023-02-28T15:49:40;3.13;;;1.67;;
46318;SDS011;32042;50.916;2.926;2023-02-28T15:52:15;3.43;;;1.90;;
46318;SDS011;32042;50.916;2.926;2023-02-28T15:54:42;3.67;;;1.70;;
46318;SDS011;32042;50.916;2.926;2023-02-28T15:57:22;1.80;;;1.70;;
46318;SDS011;32042;50.916;2.926;2023-02-28T15:59:54;3.73;;;1.60;;
46318;SDS011;32042;50.916;2.926;2023-02-28T16:07:21;2.87;;;1.70;;
46318;SDS011;32042;50.916;2.926;2023-02-28T16:09:49;3.00;;;1.70;;
46318;SDS011;32042;50.916;2.926;2023-02-28T16:12:15;3.67;;;1.47;;
46318;SDS011;32042;50.916;2.926;2023-02-28T16:14:41;4.30;;;1.80;;
46318;SDS011;32042;50.916;2.926;2023-02-28T16:17:12;2.70;;;1.80;;
46318;SDS011;32042;50.916;2.926;2023-02-28T16:19:40;1.80;;;1.70;;
46318;SDS011;32042;50.916;2.926;2023-02-28T16:22:07;1.93;;;1.73;;
46318;SDS011;32042;50.916;2.926;2023-02-28T16:24:33;3.23;;;1.80;;
46318;SDS011;32042;50.916;2.926;2023-02-28T16:26:59;2.07;;;1.83;;
46318;SDS011;32042;50.916;2.926;2023-02-28T16:31:51;4.03;;;1.70;;
46318;SDS011;32042;50.916;2.926;2023-02-28T16:34:18;7.10;;;2.00;;
46318;SDS011;32042;50.916;2.926;2023-02-28T16:36:48;2.93;;;1.80;;
46318;SDS011;32042;50.916;2.926;2023-02-28T16:39:14;2.70;;;2.17;;
46318;SDS011;32042;50.916;2.926;2023-02-28T16:41:44;3.30;;;2.20;;
46318;SDS011;32042;50.916;2.926;2023-02-28T16:44:12;2.60;;;2.20;;
46318;SDS011;32042;50.916;2.926;2023-02-28T16:46:39;2.90;;;2.00;;
46318;SDS011;32042;50.916;2.926;2023-02-28T16:49:08;3.07;;;2.13;;
46318;SDS011;32042;50.916;2.926;2023-02-28T16:51:36;5.60;;;2.10;;
46318;SDS011;32042;50.916;2.926;2023-02-28T16:54:02;2.33;;;2.13;;
46318;SDS011;32042;50.916;2.926;2023-02-28T16:56:28;2.57;;;1.93;;
46318;SDS011;32042;50.916;2.926;2023-02-28T16:58:55;2.23;;;1.90;;
46318;SDS011;32042;50.916;2.926;2023-02-28T17:01:23;2.67;;;2.27;;
46318;SDS011;32042;50.916;2.926;2023-02-28T17:03:49;4.13;;;2.43;;
46318;SDS011;32042;50.916;2.926;2023-02-28T17:06:25;3.00;;;2.70;;
46318;SDS011;32042;50.916;2.926;2023-02-28T17:08:55;2.87;;;2.67;;
46318;SDS011;32042;50.916;2.926;2023-02-28T17:11:21;2.40;;;2.20;;
46318;SDS011;32042;50.916;2.926;2023-02-28T17:13:47;4.87;;;2.73;;
46318;SDS011;32042;50.916;2.926;2023-02-28T17:18:43;9.37;;;2.57;;
46318;SDS011;32042;50.916;2.926;2023-02-28T17:21:12;2.90;;;2.70;;
46318;SDS011;32042;50.916;2.926;2023-02-28T17:23:38;3.00;;;2.33;;
46318;SDS011;32042;50.916;2.926;2023-02-28T17:26:04;2.80;;;2.50;;
46318;SDS011;32042;50.916;2.926;2023-02-28T17:28:31;9.17;;;2.67;;
46318;SDS011;32042;50.916;2.926;2023-02-28T17:30:57;3.40;;;2.80;;
46318;SDS011;32042;50.916;2.926;2023-02-28T17:33:23;5.60;;;2.97;;
46318;SDS011;32042;50.916;2.926;2023-02-28T17:35:49;3.50;;;2.77;;
46318;SDS011;32042;50.916;2.926;2023-02-28T17:38:16;3.43;;;2.83;;
46318;SDS011;32042;50.916;2.926;2023-02-28T17:40:43;3.40;;;3.07;;
46318;SDS011;32042;50.916;2.926;2023-02-28T17:43:09;3.33;;;3.03;;
46318;SDS011;32042;50.916;2.926;2023-02-28T17:45:35;4.33;;;3.27;;